Agosto, Mexico

12:32 AM CDT on April 24, 2017 (GMT -0500)
Rancho La Mezquitera | | Change Station

Elev 4946 ft 19.73 °N, 103.50 °W | Updated 6 seconds ago

Partly Cloudy
Partly Cloudy
59.4 °F
Feels Like 59.4 °F
N
2.0
Wind Variable Wind from South
Gusts 4.0 mph

Today
High -- | Low -- °F
--% Chance of Precip.
Yesterday
High -- | Low -- °F
Precip. -- in
Pressure 30.00 in
Visibility 6.0 miles
Clouds Scattered Clouds 2500 ft
Scattered Clouds 20000 ft
Dew Point 46 °F
Humidity 62%
Rainfall 0.00 in
Snow Depth Not available.
7:29 AM 8:14 PM
Waning Crescent, 7% visible
METAR MMIA 240240Z 00000KT 6SM SCT025 SCT200 21/19 A3000 RMK SLP/// 5//// 9// 8/601 HZY
Pressure 30.00 in
Visibility 6.0 miles
Clouds Scattered Clouds 2500 ft
Scattered Clouds 20000 ft
Dew Point 46 °F
Humidity 62%
Rainfall 0.00 in
Snow Depth Not available.
7:29 AM 8:14 PM
Waning Crescent, 7% visible
METAR MMIA 240240Z 00000KT 6SM SCT025 SCT200 21/19 A3000 RMK SLP/// 5//// 9// 8/601 HZY

Get Severe Weather Alerts

Thanks for signing up!

Be on the lookout for a verification email in your inbox.

You'll start receiving the daily forecast at 8 AM.

×

10-Day Weather Forecast

No radar image for this location.
×

Almanac

Astronomy

Apr. 24, 2017 Rise Set
Actual Time
Civil Twilight
Nautical Twilight
Astronomical Twilight
Moon
Length of Visible Light
Length of Day
Tomorrow will be .
, % of the Moon is Illuminated

Today's Extremes

Country Highs Country Lows

Community

WunderPhotos

WunderBlog® & News

Nearby

Air Quality

  Air Quality AQ Index Pollutant
Not available.

Snow Depth

Station Depth Elevation

Earthquake Activity

City Distance Mag. Time & Date
Minimum magnitude displayed is 2.5.

Coastal Water Temperatures

Place Temperature

Stations

Nearby Weather Stations

Station Location Temp. Windchill Dew Point Humidity Wind Precip. Elev Updated Type